createdAt,value
2018-01-02T00:00:43.082Z,992.81
2018-01-02T00:01:43.061Z,992.89
2018-01-02T00:02:43.041Z,992.89
2018-01-02T00:03:43.019Z,992.93
2018-01-02T00:04:42.999Z,992.91
2018-01-02T00:05:42.979Z,992.94
2018-01-02T00:06:42.959Z,992.98
2018-01-02T00:07:42.937Z,992.96
2018-01-02T00:08:42.931Z,992.99
2018-01-02T00:09:42.900Z,993.02
2018-01-02T00:10:42.876Z,993.07
2018-01-02T00:11:42.856Z,993.06
2018-01-02T00:12:42.837Z,993.09
2018-01-02T00:13:42.815Z,993.13
2018-01-02T00:14:42.794Z,993.13
2018-01-02T00:15:42.773Z,993.16
2018-01-02T00:16:42.753Z,993.22
2018-01-02T00:17:42.733Z,993.21
2018-01-02T00:18:42.713Z,993.27
2018-01-02T00:19:42.694Z,993.24
2018-01-02T00:20:42.671Z,993.26
2018-01-02T00:21:42.648Z,993.34
2018-01-02T00:22:42.831Z,993.34
2018-01-02T00:23:42.608Z,993.29
2018-01-02T00:24:42.587Z,993.37
2018-01-02T00:25:42.567Z,993.35
2018-01-02T00:26:42.545Z,993.46
2018-01-02T00:27:42.526Z,993.41
2018-01-02T00:28:42.507Z,993.49
2018-01-02T00:29:42.485Z,993.48
2018-01-02T00:30:42.465Z,993.57
2018-01-02T00:31:42.445Z,993.58
2018-01-02T00:32:42.430Z,993.57
2018-01-02T00:33:42.406Z,993.61
2018-01-02T00:34:42.382Z,993.62
2018-01-02T00:35:42.361Z,993.64
2018-01-02T00:36:42.340Z,993.67
2018-01-02T00:37:42.369Z,993.72
2018-01-02T00:38:42.302Z,993.73
2018-01-02T00:39:42.277Z,993.7
2018-01-02T00:40:42.257Z,993.72
2018-01-02T00:41:42.241Z,993.75
2018-01-02T00:42:42.215Z,993.77
2018-01-02T00:43:42.194Z,993.79
2018-01-02T00:44:42.174Z,993.78
2018-01-02T00:45:42.154Z,993.82
2018-01-02T00:46:42.134Z,993.86
2018-01-02T00:47:42.111Z,993.93
2018-01-02T00:48:42.090Z,993.9
2018-01-02T00:49:42.070Z,993.96
2018-01-02T00:50:42.050Z,993.96
2018-01-02T00:51:42.030Z,993.94
2018-01-02T00:52:42.007Z,993.97
2018-01-02T00:53:41.986Z,993.95
2018-01-02T00:54:41.966Z,993.99
2018-01-02T00:55:41.947Z,993.99
2018-01-02T00:56:41.925Z,994.02
2018-01-02T00:57:41.905Z,994.04
2018-01-02T00:58:41.883Z,994.02
2018-01-02T00:59:41.862Z,994.06
2018-01-02T01:00:41.842Z,994.12
2018-01-02T01:01:41.822Z,994.1
2018-01-02T01:02:41.800Z,994.09
2018-01-02T01:03:41.782Z,994.14
2018-01-02T01:04:41.758Z,994.16
2018-01-02T01:05:41.741Z,994.18
2018-01-02T01:06:41.717Z,994.19
2018-01-02T01:07:41.710Z,994.19
2018-01-02T01:08:41.675Z,994.18
2018-01-02T01:09:41.665Z,994.19
2018-01-02T01:10:41.634Z,994.28
2018-01-02T01:11:41.622Z,994.24
2018-01-02T01:12:41.590Z,994.31
2018-01-02T01:13:41.589Z,994.31
2018-01-02T01:14:41.550Z,994.33
2018-01-02T01:15:41.557Z,994.36
2018-01-02T01:16:41.508Z,994.41
2018-01-02T01:17:41.488Z,994.44
2018-01-02T01:18:41.468Z,994.47
2018-01-02T01:19:41.447Z,994.54
2018-01-02T01:20:41.425Z,994.55
2018-01-02T01:21:41.404Z,994.52
2018-01-02T01:22:41.382Z,994.57
2018-01-02T01:23:41.364Z,994.57
2018-01-02T01:24:41.342Z,994.58
2018-01-02T01:25:41.323Z,994.6
2018-01-02T01:26:41.301Z,994.57
2018-01-02T01:27:41.279Z,994.65
2018-01-02T01:28:41.261Z,994.66
2018-01-02T01:29:41.238Z,994.66
2018-01-02T01:30:41.222Z,994.69
2018-01-02T01:31:41.196Z,994.7
2018-01-02T01:32:41.182Z,994.74
2018-01-02T01:33:41.154Z,994.7
2018-01-02T01:34:41.133Z,994.72
2018-01-02T01:35:41.112Z,994.75
2018-01-02T01:36:41.090Z,994.77
2018-01-02T01:37:41.073Z,994.78
2018-01-02T01:38:41.052Z,994.77
2018-01-02T01:39:41.031Z,994.82
2018-01-02T01:40:41.009Z,994.83
2018-01-02T01:41:40.988Z,994.85
2018-01-02T01:42:40.966Z,994.85
2018-01-02T01:43:40.948Z,994.87
2018-01-02T01:44:40.924Z,994.91
2018-01-02T01:45:40.903Z,994.9
2018-01-02T01:46:40.881Z,994.93
2018-01-02T01:47:40.864Z,994.96
2018-01-02T01:48:40.842Z,994.92
2018-01-02T01:49:40.821Z,994.98
2018-01-02T01:50:40.803Z,994.94
2018-01-02T01:51:40.781Z,994.96
2018-01-02T01:52:40.758Z,994.94
2018-01-02T01:53:40.737Z,995.04
2018-01-02T01:54:40.716Z,995.01
2018-01-02T01:55:40.694Z,995.06
2018-01-02T01:56:40.673Z,995.07
2018-01-02T01:57:40.653Z,995.14
2018-01-02T01:58:40.633Z,995.13
2018-01-02T01:59:40.612Z,995.16
2018-01-02T02:00:40.591Z,995.2
2018-01-02T02:01:40.573Z,995.23
2018-01-02T02:02:40.547Z,995.24
2018-01-02T02:03:40.528Z,995.22
2018-01-02T02:04:40.507Z,995.23
2018-01-02T02:05:40.487Z,995.3
2018-01-02T02:06:40.466Z,995.31
2018-01-02T02:07:40.444Z,995.28
2018-01-02T02:08:40.427Z,995.26
2018-01-02T02:09:40.404Z,995.3
2018-01-02T02:10:40.382Z,995.22
2018-01-02T02:11:40.361Z,995.24
2018-01-02T02:12:40.340Z,995.26
2018-01-02T02:13:40.320Z,995.28
2018-01-02T02:14:40.297Z,995.33
2018-01-02T02:15:40.277Z,995.34
2018-01-02T02:16:40.258Z,995.36
2018-01-02T02:17:40.238Z,995.41
2018-01-02T02:18:40.216Z,995.44
2018-01-02T02:19:40.193Z,995.44
2018-01-02T02:20:40.176Z,995.47
2018-01-02T02:21:40.152Z,995.46
2018-01-02T02:22:40.334Z,995.48
2018-01-02T02:23:40.112Z,995.47
2018-01-02T02:24:40.090Z,995.51
2018-01-02T02:25:40.076Z,995.5
2018-01-02T02:26:40.049Z,995.54
2018-01-02T02:27:40.030Z,995.53
2018-01-02T02:28:40.008Z,995.51
2018-01-02T02:29:39.985Z,995.55
2018-01-02T02:30:39.966Z,995.54
2018-01-02T02:31:39.951Z,995.58
2018-01-02T02:32:39.923Z,995.56
2018-01-02T02:33:39.903Z,995.63
2018-01-02T02:34:39.883Z,995.61
2018-01-02T02:35:39.867Z,995.63
2018-01-02T02:36:39.840Z,995.62
2018-01-02T02:37:39.822Z,995.67
2018-01-02T02:38:39.801Z,995.66
2018-01-02T02:39:39.778Z,995.64
2018-01-02T02:40:39.759Z,995.66
2018-01-02T02:41:39.740Z,995.69
2018-01-02T02:42:39.718Z,995.69
2018-01-02T02:43:39.699Z,995.69
2018-01-02T02:44:39.682Z,995.71
2018-01-02T02:45:39.655Z,995.69
2018-01-02T02:46:39.639Z,995.72
2018-01-02T02:47:39.613Z,995.7
2018-01-02T02:48:39.593Z,995.72
2018-01-02T02:49:39.581Z,995.73
2018-01-02T02:50:39.554Z,995.76
2018-01-02T02:51:39.535Z,995.77
2018-01-02T02:52:39.518Z,995.77
2018-01-02T02:53:39.491Z,995.81
2018-01-02T02:54:39.470Z,995.84
2018-01-02T02:55:39.449Z,995.85
2018-01-02T02:56:39.428Z,995.86
2018-01-02T02:57:39.410Z,995.86
2018-01-02T02:58:39.390Z,995.9
2018-01-02T02:59:39.365Z,995.9
2018-01-02T03:00:39.348Z,995.95
2018-01-02T03:01:39.330Z,995.94
2018-01-02T03:02:39.305Z,995.91
2018-01-02T03:03:39.285Z,995.88
2018-01-02T03:04:39.263Z,995.93
2018-01-02T03:05:39.246Z,995.92
2018-01-02T03:06:39.222Z,995.92
2018-01-02T03:07:39.201Z,995.91
2018-01-02T03:08:39.181Z,995.97
2018-01-02T03:09:39.161Z,995.95
2018-01-02T03:10:39.138Z,995.91
2018-01-02T03:11:39.118Z,995.87
2018-01-02T03:12:39.098Z,995.95
2018-01-02T03:13:39.078Z,995.94
2018-01-02T03:14:39.058Z,995.91
2018-01-02T03:15:39.037Z,995.95
2018-01-02T03:16:39.017Z,995.94
2018-01-02T03:17:38.995Z,995.95
2018-01-02T03:18:38.974Z,996
2018-01-02T03:19:38.957Z,996.04
2018-01-02T03:20:38.932Z,996
2018-01-02T03:21:38.914Z,996.07
2018-01-02T03:22:38.894Z,996.03
2018-01-02T03:23:38.874Z,996.1
2018-01-02T03:24:38.852Z,996.05
2018-01-02T03:25:38.831Z,996.09
2018-01-02T03:26:38.814Z,996.1
2018-01-02T03:27:38.791Z,996.09
2018-01-02T03:28:38.769Z,996.13
2018-01-02T03:29:38.750Z,996.14
2018-01-02T03:30:38.731Z,996.15
2018-01-02T03:31:38.711Z,996.1
2018-01-02T03:32:38.686Z,996.14
2018-01-02T03:33:38.667Z,996.14
2018-01-02T03:34:38.647Z,996.13
2018-01-02T03:35:38.625Z,996.13
2018-01-02T03:36:38.606Z,996.17
2018-01-02T03:37:38.584Z,996.19
2018-01-02T03:38:38.571Z,996.23
2018-01-02T03:39:38.550Z,996.19
2018-01-02T03:40:38.523Z,996.21
2018-01-02T03:41:38.505Z,996.2
2018-01-02T03:42:38.483Z,996.24
2018-01-02T03:43:38.462Z,996.26
2018-01-02T03:44:38.444Z,996.21
2018-01-02T03:45:38.427Z,996.25
2018-01-02T03:46:38.401Z,996.25
2018-01-02T03:47:38.382Z,996.26
2018-01-02T03:48:38.363Z,996.26
2018-01-02T03:49:38.338Z,996.24
2018-01-02T03:50:38.321Z,996.27
2018-01-02T03:51:38.302Z,996.31
2018-01-02T03:52:38.283Z,996.25
2018-01-02T03:53:38.258Z,996.26
2018-01-02T03:54:38.238Z,996.28
2018-01-02T03:55:38.216Z,996.3
2018-01-02T03:56:38.197Z,996.28
2018-01-02T03:57:38.178Z,996.31
2018-01-02T03:58:38.157Z,996.34
2018-01-02T03:59:38.136Z,996.32
2018-01-02T04:00:38.114Z,996.4
2018-01-02T04:01:38.095Z,996.38
2018-01-02T04:02:38.076Z,996.36
2018-01-02T04:03:38.064Z,996.37
2018-01-02T04:04:38.032Z,996.38
2018-01-02T04:05:38.013Z,996.38
2018-01-02T04:06:37.992Z,996.39
2018-01-02T04:07:37.972Z,996.38
2018-01-02T04:08:37.951Z,996.38
2018-01-02T04:09:37.930Z,996.39
2018-01-02T04:10:37.910Z,996.39
2018-01-02T04:11:37.888Z,996.41
2018-01-02T04:12:37.870Z,996.38
2018-01-02T04:13:37.849Z,996.42
2018-01-02T04:14:37.827Z,996.44
2018-01-02T04:15:37.807Z,996.44
2018-01-02T04:16:37.787Z,996.5
2018-01-02T04:17:37.766Z,996.49
2018-01-02T04:18:37.750Z,996.52
2018-01-02T04:19:37.724Z,996.51
2018-01-02T04:20:37.703Z,996.53
2018-01-02T04:21:37.684Z,996.59
2018-01-02T04:22:37.663Z,996.58
2018-01-02T04:23:37.642Z,996.6
2018-01-02T04:24:37.622Z,996.63
2018-01-02T04:25:37.601Z,996.63
2018-01-02T04:26:37.580Z,996.66
2018-01-02T04:27:37.564Z,996.66
2018-01-02T04:28:37.541Z,996.68
2018-01-02T04:29:37.520Z,996.69
2018-01-02T04:30:37.499Z,996.74
2018-01-02T04:31:37.477Z,996.73
2018-01-02T04:32:37.483Z,996.72
2018-01-02T04:33:37.439Z,996.8
2018-01-02T04:34:37.418Z,996.75
2018-01-02T04:35:37.396Z,996.81
2018-01-02T04:36:37.376Z,996.79
2018-01-02T04:37:37.353Z,996.79
2018-01-02T04:38:37.334Z,996.86
2018-01-02T04:39:37.316Z,996.88
2018-01-02T04:40:37.294Z,996.91
2018-01-02T04:41:37.270Z,996.9
2018-01-02T04:42:37.251Z,996.86
2018-01-02T04:43:37.229Z,996.93
2018-01-02T04:44:37.211Z,996.92
2018-01-02T04:45:37.191Z,996.97
2018-01-02T04:46:37.170Z,996.96
2018-01-02T04:47:37.148Z,996.98
2018-01-02T04:48:37.126Z,996.97
2018-01-02T04:49:37.106Z,997.05
2018-01-02T04:50:37.087Z,997.06
2018-01-02T04:51:37.065Z,997.04
2018-01-02T04:52:37.043Z,997.04
2018-01-02T04:53:37.023Z,997.07
2018-01-02T04:54:37.004Z,997.09
2018-01-02T04:55:36.990Z,997.07
2018-01-02T04:56:36.962Z,997.11
2018-01-02T04:57:36.944Z,997.07
2018-01-02T04:58:36.922Z,997.17
2018-01-02T04:59:36.901Z,997.13
2018-01-02T05:00:36.878Z,997.17
2018-01-02T05:01:36.858Z,997.14
2018-01-02T05:02:36.842Z,997.15
2018-01-02T05:03:36.819Z,997.2
2018-01-02T05:04:36.795Z,997.25
2018-01-02T05:05:36.786Z,997.26
2018-01-02T05:06:36.753Z,997.32
2018-01-02T05:07:36.734Z,997.36
2018-01-02T05:08:36.712Z,997.34
2018-01-02T05:09:36.693Z,997.41
2018-01-02T05:10:36.673Z,997.45
2018-01-02T05:11:36.651Z,997.51
2018-01-02T05:12:36.634Z,997.48
2018-01-02T05:13:36.612Z,997.49
2018-01-02T05:14:36.592Z,997.48
2018-01-02T05:15:36.571Z,997.5
2018-01-02T05:16:36.549Z,997.48
2018-01-02T05:17:36.528Z,997.49
2018-01-02T05:18:36.507Z,997.51
2018-01-02T05:19:36.486Z,997.46
2018-01-02T05:20:36.469Z,997.45
2018-01-02T05:21:36.445Z,997.47
2018-01-02T05:22:36.424Z,997.45
2018-01-02T05:23:36.404Z,997.51
2018-01-02T05:24:36.385Z,997.53
2018-01-02T05:25:36.361Z,997.58
2018-01-02T05:26:36.341Z,997.67
2018-01-02T05:27:36.320Z,997.67
2018-01-02T05:28:36.299Z,997.68
2018-01-02T05:29:36.280Z,997.71
2018-01-02T05:30:36.260Z,997.71
2018-01-02T05:31:36.239Z,997.75
2018-01-02T05:32:36.216Z,997.75
2018-01-02T05:33:36.195Z,997.81
2018-01-02T05:34:36.176Z,997.9
2018-01-02T05:35:36.155Z,997.82
2018-01-02T05:36:36.138Z,997.88
2018-01-02T05:37:36.116Z,997.89
2018-01-02T05:38:36.093Z,997.89
2018-01-02T05:39:36.076Z,997.87
2018-01-02T05:40:36.051Z,997.92
2018-01-02T05:41:36.031Z,997.99
2018-01-02T05:42:36.010Z,997.96
2018-01-02T05:43:35.988Z,997.96
2018-01-02T05:44:35.969Z,997.97
2018-01-02T05:45:35.947Z,997.99
2018-01-02T05:46:35.927Z,998
2018-01-02T05:47:35.906Z,998.01
2018-01-02T05:48:35.886Z,998.08
2018-01-02T05:49:35.866Z,998.07
2018-01-02T05:50:35.843Z,998.1
2018-01-02T05:51:35.824Z,998.14
2018-01-02T05:52:35.803Z,998.17
2018-01-02T05:53:35.785Z,998.13
2018-01-02T05:54:35.763Z,998.14
2018-01-02T05:55:35.745Z,998.17
2018-01-02T05:56:35.719Z,998.23
2018-01-02T05:57:35.743Z,998.22
2018-01-02T05:58:35.680Z,998.22
2018-01-02T05:59:35.658Z,998.19
2018-01-02T06:00:35.638Z,998.29
2018-01-02T06:01:35.618Z,998.26
2018-01-02T06:02:35.596Z,998.27
2018-01-02T06:03:35.576Z,998.29
2018-01-02T06:04:35.555Z,998.33
2018-01-02T06:05:35.535Z,998.32
2018-01-02T06:06:35.514Z,998.37
2018-01-02T06:07:35.496Z,998.34
2018-01-02T06:08:35.472Z,998.37
2018-01-02T06:09:35.452Z,998.28
2018-01-02T06:10:35.433Z,998.34
2018-01-02T06:11:35.411Z,998.35
2018-01-02T06:12:35.392Z,998.34
2018-01-02T06:13:35.370Z,998.34
2018-01-02T06:14:35.354Z,998.46
2018-01-02T06:15:35.331Z,998.47
2018-01-02T06:16:35.313Z,998.5
2018-01-02T06:17:35.290Z,998.46
2018-01-02T06:18:35.268Z,998.52
2018-01-02T06:19:35.456Z,998.54
2018-01-02T06:20:35.225Z,998.61
2018-01-02T06:21:35.206Z,998.68
2018-01-02T06:22:35.195Z,998.61
2018-01-02T06:23:35.169Z,998.74
2018-01-02T06:24:35.152Z,998.7
2018-01-02T06:25:35.125Z,998.74
2018-01-02T06:26:35.104Z,998.76
2018-01-02T06:27:35.082Z,998.76
2018-01-02T06:28:35.064Z,998.74
2018-01-02T06:29:35.042Z,998.76
2018-01-02T06:30:35.023Z,998.74
2018-01-02T06:31:35.002Z,998.79
2018-01-02T06:32:34.981Z,998.82
2018-01-02T06:33:34.963Z,998.82
2018-01-02T06:34:34.940Z,998.87
2018-01-02T06:35:34.921Z,998.88
2018-01-02T06:36:34.900Z,998.87
2018-01-02T06:37:34.879Z,998.86
2018-01-02T06:38:34.857Z,998.9
2018-01-02T06:39:34.836Z,998.94
2018-01-02T06:40:34.816Z,998.89
2018-01-02T06:41:34.797Z,998.89
2018-01-02T06:42:34.778Z,998.92
2018-01-02T06:43:34.775Z,998.87
2018-01-02T06:44:34.736Z,998.94
2018-01-02T06:45:34.717Z,998.96
2018-01-02T06:46:34.695Z,998.99
2018-01-02T06:47:34.675Z,999.06
2018-01-02T06:48:34.654Z,999.01
2018-01-02T06:49:34.633Z,999.05
2018-01-02T06:50:34.614Z,999.1
2018-01-02T06:51:34.594Z,999.05
2018-01-02T06:52:34.572Z,999.02
2018-01-02T06:53:34.560Z,999.04
2018-01-02T06:54:34.531Z,999.05
2018-01-02T06:55:34.513Z,999.07
2018-01-02T06:56:34.489Z,999.08
2018-01-02T06:57:34.470Z,999.13
2018-01-02T06:58:34.448Z,999.18
2018-01-02T06:59:34.429Z,999.15
2018-01-02T07:00:34.408Z,999.13
2018-01-02T07:01:34.391Z,999.2
2018-01-02T07:02:34.367Z,999.18
2018-01-02T07:03:34.346Z,999.21
2018-01-02T07:04:34.326Z,999.21
2018-01-02T07:05:34.307Z,999.23
2018-01-02T07:06:34.286Z,999.22
2018-01-02T07:07:34.265Z,999.3
2018-01-02T07:08:34.244Z,999.25
2018-01-02T07:09:34.224Z,999.27
2018-01-02T07:10:34.203Z,999.25
2018-01-02T07:11:34.182Z,999.31
2018-01-02T07:12:34.162Z,999.38
2018-01-02T07:13:34.146Z,999.37
2018-01-02T07:14:34.121Z,999.4
2018-01-02T07:15:34.102Z,999.46
2018-01-02T07:16:34.081Z,999.5
2018-01-02T07:17:34.061Z,999.51
2018-01-02T07:18:34.038Z,999.52
2018-01-02T07:19:34.019Z,999.5
2018-01-02T07:20:33.998Z,999.53
2018-01-02T07:21:33.978Z,999.59
2018-01-02T07:22:33.956Z,999.58
2018-01-02T07:23:33.940Z,999.63
2018-01-02T07:24:33.916Z,999.66
2018-01-02T07:25:33.898Z,999.61
2018-01-02T07:26:33.875Z,999.59
2018-01-02T07:27:33.856Z,999.63
2018-01-02T07:28:33.837Z,999.62
2018-01-02T07:29:33.813Z,999.71
2018-01-02T07:30:33.796Z,999.65
2018-01-02T07:31:33.778Z,999.73
2018-01-02T07:32:33.752Z,999.73
2018-01-02T07:33:33.734Z,999.69
2018-01-02T07:34:33.711Z,999.72
2018-01-02T07:35:33.692Z,999.71
2018-01-02T07:36:33.671Z,999.75
2018-01-02T07:37:33.650Z,999.83
2018-01-02T07:38:33.630Z,999.87
2018-01-02T07:39:33.610Z,999.86
2018-01-02T07:40:33.587Z,999.84
2018-01-02T07:41:33.571Z,999.84
2018-01-02T07:42:33.551Z,999.86
2018-01-02T07:43:33.529Z,999.88
2018-01-02T07:44:33.508Z,999.87
2018-01-02T07:45:33.488Z,999.85
2018-01-02T07:46:33.469Z,999.9
2018-01-02T07:47:33.446Z,999.92
2018-01-02T07:48:33.425Z,999.89
2018-01-02T07:49:33.406Z,999.93
2018-01-02T07:50:33.386Z,999.96
2018-01-02T07:51:33.364Z,999.97
2018-01-02T07:52:33.346Z,999.98
2018-01-02T07:53:33.324Z,999.96
2018-01-02T07:54:33.306Z,999.97
2018-01-02T07:55:33.284Z,1000.04
2018-01-02T07:56:33.265Z,1000.04
2018-01-02T07:57:33.242Z,1000.03
2018-01-02T07:58:33.222Z,1000.04
2018-01-02T07:59:33.202Z,1000.07
2018-01-02T08:00:33.183Z,1000.06
2018-01-02T08:01:33.162Z,1000.06
2018-01-02T08:02:33.142Z,1000.11
2018-01-02T08:03:33.119Z,1000.13
2018-01-02T08:04:33.100Z,1000.15
2018-01-02T08:05:33.081Z,1000.13
2018-01-02T08:06:33.060Z,1000.17
2018-01-02T08:07:33.042Z,1000.17
2018-01-02T08:08:33.020Z,1000.21
2018-01-02T08:09:33.004Z,1000.22
2018-01-02T08:10:32.979Z,1000.22
2018-01-02T08:11:32.993Z,1000.26
2018-01-02T08:12:32.940Z,1000.3
2018-01-02T08:13:32.919Z,1000.36
2018-01-02T08:14:32.899Z,1000.36
2018-01-02T08:15:32.878Z,1000.43
2018-01-02T08:16:32.863Z,1000.5
2018-01-02T08:17:32.836Z,1000.48
2018-01-02T08:18:32.820Z,1000.53
2018-01-02T08:19:32.797Z,1000.5
2018-01-02T08:20:32.776Z,1000.54
2018-01-02T08:21:32.755Z,1000.53
2018-01-02T08:22:32.736Z,1000.52
2018-01-02T08:23:32.920Z,1000.55
2018-01-02T08:24:32.696Z,1000.63
2018-01-02T08:25:32.679Z,1000.62
2018-01-02T08:26:32.657Z,1000.68
2018-01-02T08:27:32.636Z,1000.67
2018-01-02T08:28:32.617Z,1000.7
2018-01-02T08:29:32.595Z,1000.75
2018-01-02T08:30:32.577Z,1000.74
2018-01-02T08:31:32.556Z,1000.71
2018-01-02T08:32:32.534Z,1000.75
2018-01-02T08:33:32.516Z,1000.73
2018-01-02T08:34:32.495Z,1000.79
2018-01-02T08:35:32.480Z,1000.81
2018-01-02T08:36:32.455Z,1000.82
2018-01-02T08:37:32.434Z,1000.85
2018-01-02T08:38:32.414Z,1000.84
2018-01-02T08:39:32.394Z,1000.85
2018-01-02T08:40:32.374Z,1000.88
2018-01-02T08:41:32.355Z,1000.88
2018-01-02T08:42:32.333Z,1000.9
2018-01-02T08:43:32.318Z,1000.9
2018-01-02T08:44:32.293Z,1000.91
2018-01-02T08:45:32.273Z,1000.96
2018-01-02T08:46:32.254Z,1000.96
2018-01-02T08:47:32.232Z,1000.99
2018-01-02T08:48:32.213Z,1001.03
2018-01-02T08:49:32.192Z,1001.02
2018-01-02T08:50:32.173Z,1001.08
2018-01-02T08:51:32.153Z,1001.09
2018-01-02T08:52:32.133Z,1001.03
2018-01-02T08:53:32.111Z,1001.08
2018-01-02T08:54:32.102Z,1001.17
2018-01-02T08:55:32.072Z,1001.16
2018-01-02T08:56:32.052Z,1001.19
2018-01-02T08:57:32.037Z,1001.2
2018-01-02T08:58:32.013Z,1001.21
2018-01-02T08:59:31.992Z,1001.22
2018-01-02T09:00:31.972Z,1001.24
2018-01-02T09:01:31.954Z,1001.24
2018-01-02T09:02:31.937Z,1001.29
2018-01-02T09:03:31.913Z,1001.31
2018-01-02T09:04:31.893Z,1001.36
2018-01-02T09:05:31.871Z,1001.33
2018-01-02T09:06:31.855Z,1001.39
2018-01-02T09:07:31.833Z,1001.43
2018-01-02T09:08:31.813Z,1001.45
2018-01-02T09:09:31.792Z,1001.46
2018-01-02T09:10:31.771Z,1001.49
2018-01-02T09:11:31.754Z,1001.6
2018-01-02T09:12:31.734Z,1001.53
2018-01-02T09:13:31.712Z,1001.57
2018-01-02T09:14:31.692Z,1001.59
2018-01-02T09:15:31.672Z,1001.66
2018-01-02T09:16:31.653Z,1001.66
2018-01-02T09:17:31.633Z,1001.66
2018-01-02T09:18:31.614Z,1001.66
2018-01-02T09:19:31.592Z,1001.74
2018-01-02T09:20:31.572Z,1001.72
2018-01-02T09:21:31.553Z,1001.74
2018-01-02T09:22:31.532Z,1001.74
2018-01-02T09:23:31.513Z,1001.73
2018-01-02T09:24:31.491Z,1001.77
2018-01-02T09:25:31.474Z,1001.75
2018-01-02T09:26:31.453Z,1001.76
2018-01-02T09:27:31.435Z,1001.75
2018-01-02T09:28:31.412Z,1001.78
2018-01-02T09:29:31.393Z,1001.77
2018-01-02T09:30:31.380Z,1001.73
2018-01-02T09:31:31.357Z,1001.83
2018-01-02T09:32:31.334Z,1001.83
2018-01-02T09:33:31.313Z,1001.85
2018-01-02T09:34:31.295Z,1001.86
2018-01-02T09:35:31.275Z,1001.78
2018-01-02T09:36:31.257Z,1001.83
2018-01-02T09:37:31.237Z,1001.85
2018-01-02T09:38:31.215Z,1001.85
2018-01-02T09:39:31.196Z,1001.93
2018-01-02T09:40:31.178Z,1001.92
2018-01-02T09:41:31.158Z,1001.86
2018-01-02T09:42:31.137Z,1001.86
2018-01-02T09:43:31.118Z,1001.86
2018-01-02T09:44:31.098Z,1001.85
2018-01-02T09:45:31.090Z,1001.88
2018-01-02T09:46:31.066Z,1001.92
2018-01-02T09:47:31.040Z,1001.94
2018-01-02T09:48:31.019Z,1001.96
2018-01-02T09:49:31.003Z,1001.96
2018-01-02T09:50:30.980Z,1001.99
2018-01-02T09:51:30.960Z,1001.99
2018-01-02T09:52:30.941Z,1002.01
2018-01-02T09:53:30.921Z,1002.01
2018-01-02T09:54:30.903Z,1002
2018-01-02T09:55:30.882Z,1002.07
2018-01-02T09:56:30.860Z,1002.11
2018-01-02T09:57:30.842Z,1002.08
2018-01-02T09:58:30.823Z,1002.07
2018-01-02T09:59:30.807Z,1002.16
2018-01-02T10:00:30.788Z,1002.06
2018-01-02T10:01:30.768Z,1002.09
2018-01-02T10:02:30.746Z,1002.12
2018-01-02T10:03:30.727Z,1002.1
2018-01-02T10:04:30.709Z,1002.13
2018-01-02T10:05:30.692Z,1002.15
2018-01-02T10:06:30.670Z,1002.16
2018-01-02T10:07:30.653Z,1002.14
2018-01-02T10:08:30.633Z,1002.17
2018-01-02T10:09:30.612Z,1002.18
2018-01-02T10:10:30.595Z,1002.27
2018-01-02T10:11:30.574Z,1002.22
2018-01-02T10:12:30.556Z,1002.32
2018-01-02T10:13:30.533Z,1002.34
2018-01-02T10:14:30.516Z,1002.36
2018-01-02T10:15:30.498Z,1002.36
2018-01-02T10:16:30.479Z,1002.36
2018-01-02T10:17:30.457Z,1002.33
2018-01-02T10:18:30.441Z,1002.35
2018-01-02T10:19:30.428Z,1002.38
2018-01-02T10:20:30.405Z,1002.42
2018-01-02T10:21:30.384Z,1002.39
2018-01-02T10:22:30.361Z,1002.42
2018-01-02T10:23:30.546Z,1002.45
2018-01-02T10:24:30.322Z,1002.45
2018-01-02T10:25:30.305Z,1002.45
2018-01-02T10:26:30.283Z,1002.45
2018-01-02T10:27:30.264Z,1002.47
2018-01-02T10:28:30.243Z,1002.41
2018-01-02T10:29:30.225Z,1002.46
2018-01-02T10:30:30.207Z,1002.44
2018-01-02T10:31:30.185Z,1002.48
2018-01-02T10:32:30.168Z,1002.46
2018-01-02T10:33:30.150Z,1002.5
2018-01-02T10:34:30.130Z,1002.51
2018-01-02T10:35:30.116Z,1002.54
2018-01-02T10:36:30.092Z,1002.54
2018-01-02T10:37:30.122Z,1002.47
2018-01-02T10:38:30.058Z,1002.52
2018-01-02T10:39:30.040Z,1002.47
2018-01-02T10:40:30.022Z,1002.5
2018-01-02T10:41:29.994Z,1002.57
2018-01-02T10:42:29.974Z,1002.5
2018-01-02T10:43:29.956Z,1002.59
2018-01-02T10:44:29.941Z,1002.62
2018-01-02T10:45:29.919Z,1002.6
2018-01-02T10:46:29.897Z,1002.6
2018-01-02T10:47:29.879Z,1002.58
2018-01-02T10:48:29.860Z,1002.67
2018-01-02T10:49:29.842Z,1002.62
2018-01-02T10:50:29.824Z,1002.64
2018-01-02T10:51:29.803Z,1002.61
2018-01-02T10:52:29.784Z,1002.66
2018-01-02T10:53:29.764Z,1002.67
2018-01-02T10:54:29.750Z,1002.54
2018-01-02T10:55:29.737Z,1002.57
2018-01-02T10:56:29.706Z,1002.6
2018-01-02T10:57:29.687Z,1002.52
2018-01-02T10:58:29.668Z,1002.51
2018-01-02T10:59:29.649Z,1002.56
2018-01-02T11:00:29.630Z,1002.58
2018-01-02T11:01:29.608Z,1002.53
2018-01-02T11:02:29.589Z,1002.54
2018-01-02T11:03:29.569Z,1002.55
2018-01-02T11:04:29.549Z,1002.54
2018-01-02T11:05:29.530Z,1002.56
2018-01-02T11:06:29.510Z,1002.51
2018-01-02T11:07:29.494Z,1002.55
2018-01-02T11:08:29.473Z,1002.59
2018-01-02T11:09:29.455Z,1002.62
2018-01-02T11:10:29.438Z,1002.64
2018-01-02T11:11:29.415Z,1002.66
2018-01-02T11:12:29.395Z,1002.68
2018-01-02T11:13:29.376Z,1002.7
2018-01-02T11:14:29.356Z,1002.71
2018-01-02T11:15:29.338Z,1002.75
2018-01-02T11:16:29.318Z,1002.74
2018-01-02T11:17:29.299Z,1002.73
2018-01-02T11:18:29.280Z,1002.75
2018-01-02T11:19:29.260Z,1002.74
2018-01-02T11:20:29.240Z,1002.74
2018-01-02T11:21:29.224Z,1002.74
2018-01-02T11:22:29.205Z,1002.77
2018-01-02T11:23:29.186Z,1002.74
2018-01-02T11:24:29.170Z,1002.75
2018-01-02T11:25:29.147Z,1002.73
2018-01-02T11:26:29.129Z,1002.75
2018-01-02T11:27:29.110Z,1002.78
2018-01-02T11:28:29.090Z,1002.75
2018-01-02T11:29:29.072Z,1002.8
2018-01-02T11:30:29.051Z,1002.77
2018-01-02T11:31:29.035Z,1002.81
2018-01-02T11:32:29.033Z,1002.77
2018-01-02T11:33:28.996Z,1002.82
2018-01-02T11:34:28.978Z,1002.79
2018-01-02T11:35:28.961Z,1002.81
2018-01-02T11:36:28.941Z,1002.84
2018-01-02T11:37:28.920Z,1002.83
2018-01-02T11:38:28.906Z,1002.88
2018-01-02T11:39:28.890Z,1002.91
2018-01-02T11:40:28.867Z,1002.89
2018-01-02T11:41:28.847Z,1002.84
2018-01-02T11:42:28.828Z,1002.91
2018-01-02T11:43:28.811Z,1002.83
2018-01-02T11:44:28.792Z,1002.83
2018-01-02T11:45:28.772Z,1002.88
2018-01-02T11:46:28.754Z,1002.81
2018-01-02T11:47:28.734Z,1002.86
2018-01-02T11:48:28.766Z,1002.83
2018-01-02T11:49:28.700Z,1002.83
2018-01-02T11:50:28.679Z,1002.79
2018-01-02T11:51:28.660Z,1002.81
2018-01-02T11:52:28.641Z,1002.74
2018-01-02T11:53:28.623Z,1002.79
2018-01-02T11:54:28.603Z,1002.8
2018-01-02T11:55:28.610Z,1002.78
2018-01-02T11:56:28.565Z,1002.74
2018-01-02T11:57:28.547Z,1002.77
2018-01-02T11:58:28.530Z,1002.66
2018-01-02T11:59:28.510Z,1002.68
2018-01-02T12:00:28.496Z,1002.68
2018-01-02T12:01:28.472Z,1002.73
2018-01-02T12:02:28.458Z,1002.67
2018-01-02T12:03:28.433Z,1002.69
2018-01-02T12:04:28.414Z,1002.69
2018-01-02T12:05:28.397Z,1002.67
2018-01-02T12:06:28.376Z,1002.64
2018-01-02T12:07:28.360Z,1002.69
2018-01-02T12:08:28.340Z,1002.63
2018-01-02T12:09:28.323Z,1002.59
2018-01-02T12:10:28.304Z,1002.59
2018-01-02T12:11:28.282Z,1002.56
2018-01-02T12:12:28.266Z,1002.54
2018-01-02T12:13:28.246Z,1002.61
2018-01-02T12:14:28.225Z,1002.57
2018-01-02T12:15:28.212Z,1002.6
2018-01-02T12:16:28.188Z,1002.58
2018-01-02T12:17:28.172Z,1002.65
2018-01-02T12:18:28.150Z,1002.61
2018-01-02T12:19:28.131Z,1002.61
2018-01-02T12:20:28.114Z,1002.59
2018-01-02T12:21:28.094Z,1002.61
2018-01-02T12:22:28.082Z,1002.6